Pugwash, Canada
Current Conditions -  °F | °C
As of 10:00 PM on Saturday 25 Oct 2014 (Local Time) from CYYG Reporting Station
Drizzle Drizzle  
Wind Chill: 44°   Ceiling: 400
Heat Index: 46°   Visibility: 10mi
Dew Point: 46°   Wind: 5mph
Humidity: 100%   Direction: 260°W
Pressure: 29.47"   Gusts: NA
Location:  45.85°N, 63.65°W
Report Text: CYYG 260100Z 26004KT 10SM -DZ BKN004 OVC012 08/08 A2947 RMK SF6SC2 SLP982
Loading
Personal Weather Stations






























Interactive Weather Map
Tropical Storm Tracking
New forecast layout! Learn more

10-Day Weather Forecast

Advertisements
Track Severe Weather on mobile